createdAt,value
2023-03-11T00:02:10.610Z,0.00
2023-03-11T00:03:10.753Z,0.00
2023-03-11T00:04:10.793Z,0.00
2023-03-11T00:05:10.939Z,0.00
2023-03-11T00:06:11.042Z,0.00
2023-03-11T00:07:11.207Z,0.00
2023-03-11T00:08:16.426Z,0.00
2023-03-11T00:09:11.431Z,0.00
2023-03-11T00:10:11.541Z,0.00
2023-03-11T00:11:11.639Z,0.00
2023-03-11T00:12:11.762Z,0.00
2023-03-11T00:13:11.907Z,0.00
2023-03-11T00:14:12.019Z,0.00
2023-03-11T00:15:12.150Z,0.00
2023-03-11T00:16:12.296Z,0.00
2023-03-11T00:17:12.390Z,0.00
2023-03-11T00:18:12.529Z,0.00
2023-03-11T00:19:12.669Z,0.00
2023-03-11T00:20:12.806Z,0.00
2023-03-11T00:21:12.890Z,0.00
2023-03-11T00:22:14.573Z,0.00
2023-03-11T00:23:13.138Z,0.00
2023-03-11T00:24:13.270Z,0.00
2023-03-11T00:25:13.377Z,0.00
2023-03-11T00:26:13.485Z,0.00
2023-03-11T00:27:13.615Z,0.00
2023-03-11T00:28:13.768Z,0.00
2023-03-11T00:29:13.878Z,0.00
2023-03-11T00:30:13.969Z,0.00
2023-03-11T00:31:14.135Z,0.00
2023-03-11T00:32:14.191Z,0.00
2023-03-11T00:33:14.290Z,0.00
2023-03-11T00:34:14.440Z,0.00
2023-03-11T00:35:14.546Z,0.00
2023-03-11T00:36:14.752Z,0.00
2023-03-11T00:37:14.801Z,0.00
2023-03-11T00:38:14.913Z,0.00
2023-03-11T00:39:15.028Z,0.00
2023-03-11T00:40:15.149Z,0.00
2023-03-11T00:41:15.269Z,0.00
2023-03-11T00:42:18.000Z,0.00
2023-03-11T00:43:15.487Z,0.00
2023-03-11T00:44:15.649Z,0.00
2023-03-11T00:45:15.719Z,0.00
2023-03-11T00:46:15.843Z,0.00
2023-03-11T00:47:15.947Z,0.00
2023-03-11T00:48:16.054Z,0.00
2023-03-11T00:49:16.175Z,0.00
2023-03-11T00:50:16.277Z,0.00
2023-03-11T00:51:16.398Z,0.00
2023-03-11T00:52:16.542Z,0.00
2023-03-11T00:53:16.681Z,0.00
2023-03-11T00:54:16.798Z,0.00
2023-03-11T00:55:16.965Z,0.00
2023-03-11T00:56:17.013Z,0.00
2023-03-11T00:57:17.129Z,0.00
2023-03-11T00:58:17.237Z,0.00
2023-03-11T00:59:17.353Z,0.00
2023-03-11T01:00:17.513Z,0.00
2023-03-11T01:01:17.635Z,0.00
2023-03-11T01:02:17.745Z,0.00
2023-03-11T01:03:17.895Z,0.00
2023-03-11T01:04:18.025Z,0.00
2023-03-11T01:05:18.159Z,0.00
2023-03-11T01:06:18.228Z,0.00
2023-03-11T01:07:18.332Z,0.00
2023-03-11T01:08:18.500Z,0.00
2023-03-11T01:09:18.553Z,0.00
2023-03-11T01:10:18.648Z,0.00
2023-03-11T01:11:18.758Z,0.00
2023-03-11T01:12:18.897Z,0.00
2023-03-11T01:13:19.113Z,0.00
2023-03-11T01:14:19.138Z,0.00
2023-03-11T01:15:19.252Z,0.00
2023-03-11T01:16:19.408Z,0.00
2023-03-11T01:17:19.495Z,0.00
2023-03-11T01:18:19.612Z,0.00
2023-03-11T01:19:19.727Z,0.00
2023-03-11T01:20:19.823Z,0.00
2023-03-11T01:21:19.946Z,0.00
2023-03-11T01:22:20.062Z,0.00
2023-03-11T01:23:20.165Z,0.00
2023-03-11T01:24:20.264Z,0.00
2023-03-11T01:25:20.384Z,0.00
2023-03-11T01:26:20.510Z,0.00
2023-03-11T01:27:20.611Z,0.00
2023-03-11T01:28:20.723Z,0.00
2023-03-11T01:29:20.843Z,0.00
2023-03-11T01:30:20.953Z,0.00
2023-03-11T01:31:21.091Z,0.00
2023-03-11T01:32:21.204Z,0.00
2023-03-11T01:33:21.305Z,0.00
2023-03-11T01:34:21.419Z,0.00
2023-03-11T01:35:21.651Z,0.00
2023-03-11T01:36:21.660Z,0.00
2023-03-11T01:37:21.809Z,0.00
2023-03-11T01:38:21.878Z,0.00
2023-03-11T01:39:21.983Z,0.00
2023-03-11T01:40:22.113Z,0.00
2023-03-11T01:41:22.214Z,0.00
2023-03-11T01:42:22.351Z,0.00
2023-03-11T01:43:22.455Z,0.00
2023-03-11T01:44:22.566Z,0.00
2023-03-11T01:45:22.668Z,0.00
2023-03-11T01:46:22.839Z,0.00
2023-03-11T01:47:22.875Z,0.00
2023-03-11T01:48:23.018Z,0.00
2023-03-11T01:49:23.129Z,0.00
2023-03-11T01:50:23.232Z,0.00
2023-03-11T01:51:23.328Z,0.00
2023-03-11T01:52:23.514Z,0.00
2023-03-11T01:53:23.701Z,0.00
2023-03-11T01:54:23.742Z,0.00
2023-03-11T01:55:23.861Z,0.00
2023-03-11T01:56:23.965Z,0.00
2023-03-11T01:57:24.073Z,0.00
2023-03-11T01:58:24.194Z,0.00
2023-03-11T01:59:24.307Z,0.00
2023-03-11T02:00:24.404Z,0.00
2023-03-11T02:01:24.623Z,0.00
2023-03-11T02:02:24.662Z,0.00
2023-03-11T02:03:24.789Z,0.00
2023-03-11T02:04:24.898Z,0.00
2023-03-11T02:05:25.024Z,0.00
2023-03-11T02:06:25.149Z,0.00
2023-03-11T02:07:25.257Z,0.00
2023-03-11T02:08:25.406Z,0.00
2023-03-11T02:09:25.526Z,0.00
2023-03-11T02:10:25.594Z,0.00
2023-03-11T02:11:25.702Z,0.00
2023-03-11T02:12:25.809Z,0.00
2023-03-11T02:13:25.964Z,0.00
2023-03-11T02:14:26.107Z,0.00
2023-03-11T02:15:26.220Z,0.00
2023-03-11T02:16:26.400Z,0.00
2023-03-11T02:17:26.456Z,0.00
2023-03-11T02:18:26.588Z,0.00
2023-03-11T02:19:26.698Z,0.00
2023-03-11T02:20:26.857Z,0.00
2023-03-11T02:21:26.921Z,0.00
2023-03-11T02:22:27.048Z,0.00
2023-03-11T02:23:27.141Z,0.00
2023-03-11T02:24:27.297Z,0.00
2023-03-11T02:25:27.469Z,0.00
2023-03-11T02:26:27.533Z,0.00
2023-03-11T02:27:27.618Z,0.00
2023-03-11T02:28:27.726Z,0.00
2023-03-11T02:29:27.846Z,0.00
2023-03-11T02:30:27.979Z,0.00
2023-03-11T02:31:28.165Z,0.00
2023-03-11T02:32:28.260Z,0.00
2023-03-11T02:33:28.337Z,0.00
2023-03-11T02:34:28.460Z,0.00
2023-03-11T02:35:28.615Z,0.00
2023-03-11T02:36:28.688Z,0.00
2023-03-11T02:37:28.809Z,0.00
2023-03-11T02:38:28.917Z,0.00
2023-03-11T02:39:29.025Z,0.00
2023-03-11T02:40:29.198Z,0.00
2023-03-11T02:41:29.256Z,0.00
2023-03-11T02:42:29.343Z,0.00
2023-03-11T02:43:29.455Z,0.00
2023-03-11T02:44:29.564Z,0.00
2023-03-11T02:45:29.745Z,0.00
2023-03-11T02:46:29.968Z,0.00
2023-03-11T02:47:29.923Z,0.00
2023-03-11T02:48:30.038Z,0.00
2023-03-11T02:49:30.145Z,0.00
2023-03-11T02:50:30.285Z,0.00
2023-03-11T02:51:30.416Z,0.00
2023-03-11T02:52:30.522Z,0.00
2023-03-11T02:53:30.639Z,0.00
2023-03-11T02:54:30.759Z,0.00
2023-03-11T02:55:30.863Z,0.00
2023-03-11T02:56:31.045Z,0.00
2023-03-11T02:57:31.105Z,0.00
2023-03-11T02:58:31.202Z,0.00
2023-03-11T02:59:31.326Z,0.00
2023-03-11T03:00:31.452Z,0.00
2023-03-11T03:01:31.704Z,0.00
2023-03-11T03:02:32.401Z,0.00
2023-03-11T03:03:31.841Z,0.00
2023-03-11T03:04:32.026Z,0.00
2023-03-11T03:05:32.189Z,0.00
2023-03-11T03:06:32.171Z,0.00
2023-03-11T03:07:32.278Z,0.00
2023-03-11T03:08:32.383Z,0.00
2023-03-11T03:09:32.479Z,0.00
2023-03-11T03:10:32.588Z,0.00
2023-03-11T03:11:32.719Z,0.00
2023-03-11T03:12:32.818Z,0.00
2023-03-11T03:13:32.918Z,0.00
2023-03-11T03:14:33.119Z,0.00
2023-03-11T03:15:33.263Z,0.00
2023-03-11T03:16:33.508Z,0.00
2023-03-11T03:17:33.634Z,0.00
2023-03-11T03:18:33.595Z,0.00
2023-03-11T03:19:33.710Z,0.00
2023-03-11T03:20:33.947Z,0.00
2023-03-11T03:21:33.974Z,0.00
2023-03-11T03:22:34.173Z,0.00
2023-03-11T03:23:34.341Z,0.00
2023-03-11T03:24:34.877Z,0.00
2023-03-11T03:25:34.538Z,0.00
2023-03-11T03:26:35.737Z,0.00
2023-03-11T03:27:34.984Z,0.00
2023-03-11T03:28:34.892Z,0.00
2023-03-11T03:29:35.560Z,0.00
2023-03-11T03:30:35.332Z,0.00
2023-03-11T03:31:35.447Z,0.00
2023-03-11T03:32:35.377Z,0.00
2023-03-11T03:33:35.953Z,0.00
2023-03-11T03:34:35.522Z,0.00
2023-03-11T03:35:39.695Z,0.00
2023-03-11T03:36:36.364Z,0.00
2023-03-11T03:37:36.761Z,0.00
2023-03-11T03:38:35.963Z,0.00
2023-03-11T03:39:36.192Z,0.00
2023-03-11T03:40:36.212Z,0.00
2023-03-11T03:41:37.360Z,0.00
2023-03-11T03:42:36.489Z,0.00
2023-03-11T03:43:36.589Z,0.00
2023-03-11T03:44:36.656Z,0.00
2023-03-11T03:45:36.786Z,0.00
2023-03-11T03:46:36.884Z,0.00
2023-03-11T03:47:36.996Z,0.00
2023-03-11T03:48:37.101Z,0.00
2023-03-11T03:49:37.268Z,0.00
2023-03-11T03:50:37.387Z,0.00
2023-03-11T03:51:37.543Z,0.00
2023-03-11T03:52:37.645Z,0.00
2023-03-11T03:53:37.791Z,0.00
2023-03-11T03:54:37.906Z,0.00
2023-03-11T03:55:38.625Z,0.00
2023-03-11T03:56:38.146Z,0.00
2023-03-11T03:57:38.268Z,0.00
2023-03-11T03:58:38.356Z,0.00
2023-03-11T03:59:38.530Z,0.00
2023-03-11T04:00:38.627Z,0.00
2023-03-11T04:01:39.272Z,0.00
2023-03-11T04:02:39.063Z,0.00
2023-03-11T04:03:39.009Z,0.00
2023-03-11T04:04:39.067Z,0.00
2023-03-11T04:05:39.224Z,0.00
2023-03-11T04:06:39.343Z,0.00
2023-03-11T04:07:39.465Z,0.00
2023-03-11T04:08:39.575Z,0.00
2023-03-11T04:09:39.719Z,0.00
2023-03-11T04:10:39.874Z,0.00
2023-03-11T04:11:40.034Z,0.00
2023-03-11T04:12:40.138Z,0.00
2023-03-11T04:13:40.255Z,0.00
2023-03-11T04:14:40.391Z,0.00
2023-03-11T04:15:40.580Z,0.00
2023-03-11T04:16:40.771Z,0.00
2023-03-11T04:17:40.834Z,0.00
2023-03-11T04:18:40.937Z,0.00
2023-03-11T04:19:41.040Z,0.00
2023-03-11T04:20:41.156Z,0.00
2023-03-11T04:21:41.288Z,0.00
2023-03-11T04:22:41.463Z,0.00
2023-03-11T04:23:41.522Z,0.00
2023-03-11T04:24:41.612Z,0.00
2023-03-11T04:25:41.775Z,0.00
2023-03-11T04:26:41.948Z,0.00
2023-03-11T04:27:42.068Z,0.00
2023-03-11T04:28:42.160Z,0.00
2023-03-11T04:29:42.307Z,0.00
2023-03-11T04:30:42.499Z,0.00
2023-03-11T04:31:42.578Z,0.00
2023-03-11T04:32:42.797Z,0.00
2023-03-11T04:33:42.876Z,0.00
2023-03-11T04:34:42.954Z,0.00
2023-03-11T04:35:43.192Z,0.00
2023-03-11T04:36:43.235Z,0.00
2023-03-11T04:37:43.540Z,0.00
2023-03-11T04:38:43.482Z,0.00
2023-03-11T04:39:43.605Z,0.00
2023-03-11T04:40:43.700Z,0.00
2023-03-11T04:41:43.850Z,0.00
2023-03-11T04:42:44.067Z,0.00
2023-03-11T04:43:44.144Z,0.00
2023-03-11T04:44:44.239Z,0.00
2023-03-11T04:45:44.395Z,0.00
2023-03-11T04:46:44.448Z,0.00
2023-03-11T04:47:44.622Z,0.00
2023-03-11T04:48:44.725Z,0.00
2023-03-11T04:49:44.817Z,0.00
2023-03-11T04:50:45.023Z,0.00
2023-03-11T04:51:45.112Z,0.00
2023-03-11T04:52:45.272Z,0.00
2023-03-11T04:53:45.373Z,0.00
2023-03-11T04:54:45.492Z,0.00
2023-03-11T04:55:45.670Z,0.00
2023-03-11T04:56:45.727Z,0.00
2023-03-11T04:57:45.875Z,0.00
2023-03-11T04:58:45.979Z,0.00
2023-03-11T04:59:46.082Z,0.00
2023-03-11T05:00:46.214Z,0.00
2023-03-11T05:01:46.360Z,0.00
2023-03-11T05:02:46.537Z,0.00
2023-03-11T05:03:46.548Z,0.00
2023-03-11T05:04:46.891Z,0.00
2023-03-11T05:05:46.804Z,0.00
2023-03-11T05:06:46.967Z,0.00
2023-03-11T05:07:47.063Z,0.00
2023-03-11T05:08:47.151Z,0.00
2023-03-11T05:09:47.270Z,0.00
2023-03-11T05:10:47.390Z,0.00
2023-03-11T05:11:47.476Z,0.00
2023-03-11T05:12:47.582Z,0.00
2023-03-11T05:13:47.716Z,0.00
2023-03-11T05:14:47.888Z,0.00
2023-03-11T05:15:47.988Z,0.00
2023-03-11T05:16:48.157Z,0.00
2023-03-11T05:17:48.255Z,0.00
2023-03-11T05:18:48.383Z,0.00
2023-03-11T05:19:48.465Z,0.00
2023-03-11T05:20:48.616Z,0.00
2023-03-11T05:21:48.810Z,0.00
2023-03-11T05:22:49.026Z,0.00
2023-03-11T05:23:49.005Z,0.00
2023-03-11T05:24:49.171Z,0.00
2023-03-11T05:25:49.231Z,0.00
2023-03-11T05:26:49.386Z,0.00
2023-03-11T05:27:49.533Z,0.00
2023-03-11T05:28:49.673Z,0.00
2023-03-11T05:29:49.788Z,0.00
2023-03-11T05:30:49.952Z,0.00
2023-03-11T05:31:50.062Z,0.00
2023-03-11T05:32:50.275Z,0.00
2023-03-11T05:33:50.303Z,0.00
2023-03-11T05:34:50.414Z,0.00
2023-03-11T05:35:50.605Z,0.00
2023-03-11T05:36:50.684Z,0.00
2023-03-11T05:37:50.778Z,0.00
2023-03-11T05:38:50.891Z,0.00
2023-03-11T05:39:50.999Z,0.00
2023-03-11T05:40:51.123Z,0.00
2023-03-11T05:41:51.241Z,0.00
2023-03-11T05:42:51.411Z,0.00
2023-03-11T05:43:51.480Z,0.00
2023-03-11T05:44:51.606Z,0.00
2023-03-11T05:45:51.721Z,0.00
2023-03-11T05:46:51.878Z,0.00
2023-03-11T05:47:51.952Z,0.00
2023-03-11T05:48:52.060Z,0.00
2023-03-11T05:49:52.183Z,0.00
2023-03-11T05:50:52.330Z,0.00
2023-03-11T05:51:52.460Z,0.00
2023-03-11T05:52:52.551Z,0.00
2023-03-11T05:53:52.708Z,5.62
2023-03-11T05:54:52.823Z,5.62
2023-03-11T05:55:52.949Z,5.62
2023-03-11T05:56:53.086Z,5.62
2023-03-11T05:57:53.238Z,5.62
2023-03-11T05:58:53.314Z,5.62
2023-03-11T05:59:53.416Z,5.62
2023-03-11T06:00:53.525Z,5.62
2023-03-11T06:01:53.695Z,11.25
2023-03-11T06:02:53.797Z,11.25
2023-03-11T06:03:53.930Z,11.25
2023-03-11T06:04:54.149Z,11.25
2023-03-11T06:05:54.135Z,16.88
2023-03-11T06:06:54.302Z,16.88
2023-03-11T06:07:54.402Z,16.88
2023-03-11T06:08:54.570Z,22.50
2023-03-11T06:09:54.689Z,22.50
2023-03-11T06:10:54.855Z,22.50
2023-03-11T06:11:55.029Z,28.12
2023-03-11T06:12:55.120Z,28.12
2023-03-11T06:13:55.234Z,33.75
2023-03-11T06:14:55.376Z,33.75
2023-03-11T06:15:55.489Z,33.75
2023-03-11T06:16:55.700Z,33.75
2023-03-11T06:17:55.770Z,39.38
2023-03-11T06:18:55.878Z,39.38
2023-03-11T06:19:55.988Z,39.38
2023-03-11T06:20:56.147Z,45.00
2023-03-11T06:21:56.295Z,50.62
2023-03-11T06:22:56.381Z,50.62
2023-03-11T06:23:56.483Z,56.25
2023-03-11T06:24:56.582Z,56.25
2023-03-11T06:25:56.703Z,56.25
2023-03-11T06:26:56.874Z,56.25
2023-03-11T06:27:56.923Z,56.25
2023-03-11T06:29:11.753Z,61.88
2023-03-11T06:29:57.161Z,61.88
2023-03-11T06:30:57.328Z,61.88
2023-03-11T06:31:57.520Z,61.88
2023-03-11T06:32:57.602Z,67.50
2023-03-11T06:33:57.671Z,73.12
2023-03-11T06:34:57.829Z,73.12
2023-03-11T06:35:58.015Z,78.75
2023-03-11T06:36:58.066Z,78.75
2023-03-11T06:37:58.211Z,84.38
2023-03-11T06:38:58.347Z,84.38
2023-03-11T06:39:58.430Z,90.00
2023-03-11T06:40:58.540Z,90.00
2023-03-11T06:41:58.619Z,90.00
2023-03-11T06:42:59.286Z,90.00
2023-03-11T06:43:58.931Z,95.62
2023-03-11T06:44:59.055Z,95.62
2023-03-11T06:45:59.235Z,95.62
2023-03-11T06:46:59.314Z,95.62
2023-03-11T06:47:59.452Z,95.62
2023-03-11T06:48:59.562Z,95.62
2023-03-11T06:49:59.691Z,95.62
2023-03-11T06:50:59.785Z,95.62
2023-03-11T06:51:59.893Z,95.62
2023-03-11T06:53:00.087Z,95.62
2023-03-11T06:54:00.194Z,101.25
2023-03-11T06:55:00.283Z,106.88
2023-03-11T06:56:00.464Z,106.88
2023-03-11T06:57:00.560Z,112.50
2023-03-11T06:58:00.692Z,123.75
2023-03-11T06:59:00.800Z,118.12
2023-03-11T07:00:00.902Z,112.50
2023-03-11T07:01:01.084Z,106.88
2023-03-11T07:02:01.132Z,106.88
2023-03-11T07:03:01.242Z,118.12
2023-03-11T07:04:01.397Z,123.75
2023-03-11T07:05:01.502Z,168.75
2023-03-11T07:06:01.675Z,168.75
2023-03-11T07:07:01.769Z,168.75
2023-03-11T07:08:01.949Z,168.75
2023-03-11T07:09:02.058Z,174.38
2023-03-11T07:10:02.225Z,174.38
2023-03-11T07:11:02.294Z,163.12
2023-03-11T07:12:02.425Z,163.12
2023-03-11T07:13:02.525Z,163.12
2023-03-11T07:14:02.644Z,157.50
2023-03-11T07:15:02.832Z,146.25
2023-03-11T07:16:02.939Z,135.00
2023-03-11T07:17:03.045Z,129.38
2023-03-11T07:18:03.152Z,135.00
2023-03-11T07:19:03.343Z,146.25
2023-03-11T07:20:03.455Z,135.00
2023-03-11T07:21:03.566Z,151.88
2023-03-11T07:22:03.717Z,174.38
2023-03-11T07:23:03.818Z,163.12
2023-03-11T07:24:03.949Z,174.38
2023-03-11T07:25:04.056Z,151.88
2023-03-11T07:26:04.155Z,230.62
2023-03-11T07:27:04.274Z,236.25
2023-03-11T07:28:04.380Z,208.12
2023-03-11T07:29:04.534Z,213.75
2023-03-11T07:30:04.622Z,230.62
2023-03-11T07:31:04.773Z,230.62
2023-03-11T07:32:04.952Z,230.62
2023-03-11T07:33:05.063Z,230.62
2023-03-11T07:34:05.174Z,236.25
2023-03-11T07:35:05.289Z,236.25
2023-03-11T07:36:05.396Z,241.88
2023-03-11T07:37:05.540Z,241.88
2023-03-11T07:38:05.647Z,241.88
2023-03-11T07:39:05.755Z,241.88
2023-03-11T07:40:05.918Z,241.88
2023-03-11T07:41:05.998Z,247.50
2023-03-11T07:42:06.099Z,258.75
2023-03-11T07:43:06.237Z,264.38
2023-03-11T07:44:06.850Z,253.12
2023-03-11T07:45:06.532Z,258.75
2023-03-11T07:46:06.685Z,258.75
2023-03-11T07:47:06.713Z,264.38
2023-03-11T07:48:06.827Z,270.00
2023-03-11T07:49:06.921Z,270.00
2023-03-11T07:50:07.044Z,264.38
2023-03-11T07:51:07.153Z,264.38
2023-03-11T07:52:07.264Z,264.38
2023-03-11T07:53:07.374Z,281.25
2023-03-11T07:54:07.489Z,286.88
2023-03-11T07:55:07.966Z,292.50
2023-03-11T07:56:07.697Z,292.50
2023-03-11T07:57:07.798Z,298.12
2023-03-11T07:58:07.910Z,298.12
2023-03-11T07:59:08.032Z,303.75
2023-03-11T08:00:08.132Z,309.38
2023-03-11T08:01:08.231Z,309.38
2023-03-11T08:02:08.381Z,315.00
2023-03-11T08:03:08.435Z,320.62
2023-03-11T08:04:08.580Z,320.62
2023-03-11T08:05:08.880Z,326.25
2023-03-11T08:06:08.830Z,331.88
2023-03-11T08:07:08.952Z,337.50
2023-03-11T08:08:09.067Z,343.12
2023-03-11T08:09:09.197Z,354.38
2023-03-11T08:10:09.280Z,360.00
2023-03-11T08:11:09.380Z,360.00
2023-03-11T08:12:09.546Z,371.25
2023-03-11T08:13:09.606Z,376.88
2023-03-11T08:14:09.725Z,382.50
2023-03-11T08:15:09.832Z,388.12
2023-03-11T08:16:10.016Z,393.75
2023-03-11T08:17:10.068Z,393.75
2023-03-11T08:18:11.147Z,399.38
2023-03-11T08:19:10.308Z,405.00
2023-03-11T08:20:10.406Z,405.00
2023-03-11T08:21:10.577Z,405.00
2023-03-11T08:22:10.676Z,399.38
2023-03-11T08:23:10.873Z,393.75
2023-03-11T08:24:10.916Z,393.75
2023-03-11T08:25:11.026Z,393.75
2023-03-11T08:26:11.132Z,399.38
2023-03-11T08:27:11.227Z,405.00
2023-03-11T08:28:11.556Z,399.38
2023-03-11T08:29:11.496Z,421.88
2023-03-11T08:30:11.606Z,438.75
2023-03-11T08:31:11.749Z,438.75
2023-03-11T08:32:11.908Z,427.50
2023-03-11T08:33:11.967Z,433.12
2023-03-11T08:34:12.128Z,433.12
2023-03-11T08:35:12.254Z,433.12
2023-03-11T08:36:12.423Z,433.12
2023-03-11T08:37:12.544Z,433.12
2023-03-11T08:38:12.660Z,444.38
2023-03-11T08:39:12.830Z,438.75
2023-03-11T08:40:12.903Z,450.00
2023-03-11T08:41:13.026Z,461.25
2023-03-11T08:42:13.142Z,466.88
2023-03-11T08:43:13.242Z,483.75
2023-03-11T08:44:13.361Z,489.38
2023-03-11T08:45:13.489Z,495.00
2023-03-11T08:46:13.619Z,483.75
2023-03-11T08:47:13.714Z,495.00
2023-03-11T08:48:13.830Z,495.00
2023-03-11T08:49:13.941Z,500.62
2023-03-11T08:50:14.092Z,506.25
2023-03-11T08:51:14.192Z,500.62
2023-03-11T08:52:15.859Z,506.25
2023-03-11T08:53:14.424Z,511.88
2023-03-11T08:54:14.519Z,511.88
2023-03-11T08:55:16.159Z,506.25
2023-03-11T08:56:14.758Z,517.50
2023-03-11T08:57:14.868Z,523.12
2023-03-11T08:58:14.992Z,495.00
2023-03-11T08:59:15.086Z,551.25
2023-03-11T09:00:15.240Z,601.88
2023-03-11T09:01:15.362Z,596.25
2023-03-11T09:02:15.470Z,646.88
2023-03-11T09:03:15.577Z,646.88
2023-03-11T09:04:15.716Z,624.38
2023-03-11T09:05:15.808Z,624.38
2023-03-11T09:06:16.099Z,641.25
2023-03-11T09:07:16.130Z,635.62
2023-03-11T09:08:16.218Z,641.25
2023-03-11T09:09:16.325Z,613.12
2023-03-11T09:10:16.435Z,680.62
2023-03-11T09:11:16.574Z,652.50
2023-03-11T09:12:16.668Z,568.12
2023-03-11T09:13:16.766Z,568.12
2023-03-11T09:14:16.875Z,618.75
2023-03-11T09:15:16.964Z,579.38
2023-03-11T09:16:17.224Z,686.25
2023-03-11T09:17:17.267Z,686.25
2023-03-11T09:18:17.365Z,601.88
2023-03-11T09:19:17.463Z,652.50
2023-03-11T09:20:17.628Z,765.00
2023-03-11T09:21:17.744Z,810.00
2023-03-11T09:22:17.855Z,849.38
2023-03-11T09:23:17.980Z,855.00
2023-03-11T09:24:18.147Z,748.12
2023-03-11T09:25:18.195Z,776.25
2023-03-11T09:26:18.309Z,630.00
2023-03-11T09:27:18.432Z,618.75
2023-03-11T09:28:18.529Z,624.38
2023-03-11T09:29:18.667Z,641.25
2023-03-11T09:30:18.797Z,562.50
2023-03-11T09:31:19.017Z,770.62
2023-03-11T09:32:19.047Z,748.12
2023-03-11T09:33:19.133Z,770.62
2023-03-11T09:34:19.265Z,697.50
2023-03-11T09:35:19.364Z,703.12
2023-03-11T09:36:19.483Z,691.88
2023-03-11T09:37:19.594Z,742.50
2023-03-11T09:38:19.687Z,551.25
2023-03-11T09:39:19.884Z,585.00
2023-03-11T09:40:20.004Z,568.12
2023-03-11T09:41:20.102Z,500.62
2023-03-11T09:42:20.215Z,596.25
2023-03-11T09:43:20.312Z,781.88
2023-03-11T09:44:20.466Z,759.38
2023-03-11T09:45:20.572Z,742.50
2023-03-11T09:46:20.690Z,725.62
2023-03-11T09:47:20.773Z,804.38
2023-03-11T09:48:22.724Z,832.50
2023-03-11T09:49:21.092Z,877.50
2023-03-11T09:50:24.702Z,860.62
2023-03-11T09:51:21.320Z,815.62
2023-03-11T09:52:21.370Z,877.50
2023-03-11T09:53:21.484Z,950.62
2023-03-11T09:54:21.653Z,714.38
2023-03-11T09:55:21.690Z,916.88
2023-03-11T09:56:21.803Z,950.62
2023-03-11T09:57:21.913Z,894.38
2023-03-11T09:58:22.045Z,1006.88
2023-03-11T09:59:22.170Z,984.38
2023-03-11T10:00:22.324Z,978.75
2023-03-11T10:01:22.369Z,843.75
2023-03-11T10:02:22.712Z,871.88
2023-03-11T10:03:22.686Z,990.00
2023-03-11T10:04:22.825Z,1035.00
2023-03-11T10:05:22.890Z,1074.38
2023-03-11T10:06:22.897Z,1080.00
2023-03-11T10:07:23.025Z,1091.25
2023-03-11T10:08:23.124Z,1102.50
2023-03-11T10:09:23.243Z,1136.25
2023-03-11T10:10:23.368Z,1125.00
2023-03-11T10:11:23.480Z,1051.88
2023-03-11T10:12:23.577Z,967.50
2023-03-11T10:13:23.704Z,1125.00
2023-03-11T10:14:23.776Z,1080.00
2023-03-11T10:15:23.966Z,1125.00
2023-03-11T10:16:24.115Z,1068.75
2023-03-11T10:17:24.185Z,1051.88
2023-03-11T10:18:24.310Z,1113.75
2023-03-11T10:19:24.418Z,1108.12
2023-03-11T10:20:26.052Z,1186.88
2023-03-11T10:21:25.748Z,1237.50
2023-03-11T10:22:24.787Z,1327.50
2023-03-11T10:23:24.896Z,1333.12
2023-03-11T10:24:25.000Z,1406.25
2023-03-11T10:25:25.113Z,1389.38
2023-03-11T10:26:25.194Z,1305.00
2023-03-11T10:27:25.325Z,1141.88
2023-03-11T10:28:25.429Z,933.75
2023-03-11T10:29:25.544Z,1051.88
2023-03-11T10:30:25.674Z,911.25
2023-03-11T10:31:25.827Z,798.75
2023-03-11T10:32:25.927Z,978.75
2023-03-11T10:33:26.021Z,669.38
2023-03-11T10:34:26.127Z,652.50
2023-03-11T10:35:26.384Z,714.38
2023-03-11T10:36:26.341Z,933.75
2023-03-11T10:37:33.235Z,568.12
2023-03-11T10:38:27.606Z,551.25
2023-03-11T10:39:26.713Z,562.50
2023-03-11T10:40:26.880Z,601.88
2023-03-11T10:41:26.924Z,641.25
2023-03-11T10:42:27.067Z,652.50
2023-03-11T10:43:27.182Z,680.62
2023-03-11T10:44:27.299Z,720.00
2023-03-11T10:45:27.441Z,753.75
2023-03-11T10:46:27.478Z,776.25
2023-03-11T10:47:27.606Z,804.38
2023-03-11T10:48:27.705Z,776.25
2023-03-11T10:49:27.834Z,793.12
2023-03-11T10:50:27.939Z,765.00
2023-03-11T10:51:28.062Z,753.75
2023-03-11T10:52:28.228Z,725.62
2023-03-11T10:53:28.971Z,821.25
2023-03-11T10:54:28.430Z,686.25
2023-03-11T10:55:28.635Z,753.75
2023-03-11T10:56:28.676Z,630.00
2023-03-11T10:57:28.905Z,613.12
2023-03-11T10:58:28.908Z,669.38
2023-03-11T10:59:29.012Z,736.88
2023-03-11T11:00:29.132Z,753.75
2023-03-11T11:01:29.270Z,826.88
2023-03-11T11:02:29.435Z,933.75
2023-03-11T11:03:29.498Z,911.25
2023-03-11T11:04:29.715Z,922.50
2023-03-11T11:05:29.715Z,877.50
2023-03-11T11:06:29.875Z,804.38
2023-03-11T11:07:29.972Z,821.25
2023-03-11T11:08:30.023Z,697.50
2023-03-11T11:09:30.130Z,675.00
2023-03-11T11:10:30.343Z,675.00
2023-03-11T11:11:30.472Z,697.50
2023-03-11T11:12:30.631Z,686.25
2023-03-11T11:13:30.637Z,675.00
2023-03-11T11:14:30.671Z,641.25
2023-03-11T11:15:30.794Z,568.12
2023-03-11T11:16:30.949Z,517.50
2023-03-11T11:17:31.020Z,478.12
2023-03-11T11:18:31.329Z,444.38
2023-03-11T11:19:31.274Z,433.12
2023-03-11T11:20:31.456Z,421.88
2023-03-11T11:21:31.617Z,410.62
2023-03-11T11:22:31.672Z,416.25
2023-03-11T11:23:31.751Z,500.62
2023-03-11T11:24:31.870Z,540.00
2023-03-11T11:25:32.006Z,708.75
2023-03-11T11:26:32.110Z,1243.12
2023-03-11T11:27:32.209Z,1591.88
2023-03-11T11:28:32.351Z,1119.38
2023-03-11T11:29:32.483Z,753.75
2023-03-11T11:30:32.605Z,641.25
2023-03-11T11:31:32.754Z,680.62
2023-03-11T11:32:32.833Z,680.62
2023-03-11T11:33:32.938Z,601.88
2023-03-11T11:34:33.057Z,585.00
2023-03-11T11:35:33.171Z,635.62
2023-03-11T11:36:33.303Z,686.25
2023-03-11T11:37:33.392Z,663.75
2023-03-11T11:38:33.535Z,742.50
2023-03-11T11:39:33.642Z,770.62
2023-03-11T11:40:33.729Z,511.88
2023-03-11T11:41:33.862Z,416.25
2023-03-11T11:42:34.073Z,416.25
2023-03-11T11:43:34.109Z,444.38
2023-03-11T11:44:34.198Z,495.00
2023-03-11T11:45:34.300Z,472.50
2023-03-11T11:46:34.577Z,472.50
2023-03-11T11:47:34.665Z,517.50
2023-03-11T11:48:34.706Z,618.75
2023-03-11T11:49:34.783Z,793.12
2023-03-11T11:50:34.917Z,826.88
2023-03-11T11:51:35.013Z,810.00
2023-03-11T11:52:35.194Z,759.38
2023-03-11T11:53:35.230Z,759.38
2023-03-11T11:54:35.408Z,759.38
2023-03-11T11:55:35.560Z,793.12
2023-03-11T11:56:36.624Z,759.38
2023-03-11T11:57:35.877Z,658.12
2023-03-11T11:58:35.928Z,658.12
2023-03-11T11:59:36.047Z,787.50
2023-03-11T12:00:36.218Z,894.38
2023-03-11T12:01:36.319Z,922.50
2023-03-11T12:02:37.940Z,900.00
2023-03-11T12:03:36.564Z,866.25
2023-03-11T12:04:36.577Z,810.00
2023-03-11T12:05:36.729Z,770.62
2023-03-11T12:06:36.817Z,765.00
2023-03-11T12:07:36.931Z,765.00
2023-03-11T12:08:37.067Z,736.88
2023-03-11T12:09:37.246Z,697.50
2023-03-11T12:10:37.316Z,675.00
2023-03-11T12:11:37.421Z,675.00
2023-03-11T12:12:37.514Z,686.25
2023-03-11T12:13:37.662Z,725.62
2023-03-11T12:14:37.784Z,770.62
2023-03-11T12:15:37.901Z,815.62
2023-03-11T12:16:38.016Z,860.62
2023-03-11T12:17:38.112Z,950.62
2023-03-11T12:18:38.259Z,945.00
2023-03-11T12:19:38.349Z,905.62
2023-03-11T12:20:38.454Z,849.38
2023-03-11T12:21:38.572Z,815.62
2023-03-11T12:22:38.721Z,798.75
2023-03-11T12:23:38.826Z,781.88
2023-03-11T12:24:38.886Z,765.00
2023-03-11T12:25:38.992Z,776.25
2023-03-11T12:26:39.102Z,793.12
2023-03-11T12:27:39.218Z,832.50
2023-03-11T12:28:39.333Z,855.00
2023-03-11T12:29:39.452Z,860.62
2023-03-11T12:30:39.542Z,855.00
2023-03-11T12:31:39.691Z,832.50
2023-03-11T12:32:39.868Z,815.62
2023-03-11T12:33:39.880Z,826.88
2023-03-11T12:34:41.664Z,838.12
2023-03-11T12:35:40.361Z,871.88
2023-03-11T12:36:40.196Z,905.62
2023-03-11T12:37:40.533Z,900.00
2023-03-11T12:38:40.474Z,832.50
2023-03-11T12:39:40.562Z,787.50
2023-03-11T12:40:40.671Z,753.75
2023-03-11T12:41:40.791Z,736.88
2023-03-11T12:42:41.432Z,720.00
2023-03-11T12:43:41.019Z,697.50
2023-03-11T12:44:41.114Z,697.50
2023-03-11T12:45:41.220Z,708.75
2023-03-11T12:46:41.422Z,748.12
2023-03-11T12:47:41.443Z,770.62
2023-03-11T12:48:41.603Z,765.00
2023-03-11T12:49:41.691Z,765.00
2023-03-11T12:50:41.790Z,753.75
2023-03-11T12:51:41.911Z,770.62
2023-03-11T12:52:42.087Z,770.62
2023-03-11T12:53:42.141Z,742.50
2023-03-11T12:54:42.323Z,731.25